createdAt,value
2019-03-27T00:02:21.996Z,31.07
2019-03-27T00:04:50.389Z,21.12
2019-03-27T00:07:18.766Z,24.70
2019-03-27T00:09:47.171Z,23.80
2019-03-27T00:12:15.543Z,31.05
2019-03-27T00:14:43.948Z,25.02
2019-03-27T00:17:12.338Z,22.80
2019-03-27T00:19:40.732Z,28.60
2019-03-27T00:22:09.094Z,26.27
2019-03-27T00:24:37.483Z,24.18
2019-03-27T00:27:05.851Z,27.02
2019-03-27T00:29:34.247Z,25.97
2019-03-27T00:32:02.610Z,27.60
2019-03-27T00:34:30.947Z,29.37
2019-03-27T00:36:59.337Z,27.17
2019-03-27T00:39:27.752Z,25.25
2019-03-27T00:41:56.110Z,26.52
2019-03-27T00:44:24.509Z,34.75
2019-03-27T00:46:52.912Z,29.27
2019-03-27T00:49:21.310Z,25.40
2019-03-27T00:51:49.688Z,25.95
2019-03-27T00:54:18.086Z,28.40
2019-03-27T00:56:46.403Z,24.57
2019-03-27T00:59:14.780Z,28.47
2019-03-27T01:01:43.175Z,29.25
2019-03-27T01:04:11.554Z,28.32
2019-03-27T01:06:39.944Z,29.42
2019-03-27T01:09:08.311Z,33.45
2019-03-27T01:11:36.718Z,24.95
2019-03-27T01:14:05.104Z,31.82
2019-03-27T01:16:33.486Z,32.28
2019-03-27T01:19:01.872Z,28.55
2019-03-27T01:21:30.256Z,27.90
2019-03-27T01:23:58.625Z,28.25
2019-03-27T01:26:27.017Z,26.90
2019-03-27T01:28:55.388Z,23.75
2019-03-27T01:31:23.787Z,28.90
2019-03-27T01:33:52.168Z,25.97
2019-03-27T01:36:20.554Z,27.48
2019-03-27T01:38:48.953Z,23.85
2019-03-27T01:41:17.367Z,29.00
2019-03-27T01:43:45.747Z,26.97
2019-03-27T01:46:14.205Z,25.60
2019-03-27T01:48:42.607Z,25.10
2019-03-27T01:51:10.970Z,26.40
2019-03-27T01:53:39.338Z,27.07
2019-03-27T01:56:07.659Z,32.53
2019-03-27T01:58:35.965Z,26.10
2019-03-27T02:01:04.365Z,25.55
2019-03-27T02:03:32.744Z,34.38
2019-03-27T02:06:01.154Z,26.55
2019-03-27T02:08:29.524Z,28.67
2019-03-27T02:10:57.928Z,26.75
2019-03-27T02:13:26.298Z,24.95
2019-03-27T02:16:06.311Z,25.65
2019-03-27T02:18:24.714Z,31.77
2019-03-27T02:20:53.103Z,28.50
2019-03-27T02:23:21.485Z,25.43
2019-03-27T02:25:49.948Z,34.30
2019-03-27T02:28:18.323Z,30.08
2019-03-27T02:30:46.719Z,26.50
2019-03-27T02:33:15.121Z,25.48
2019-03-27T02:35:43.514Z,27.75
2019-03-27T02:38:11.889Z,27.60
2019-03-27T02:40:40.293Z,28.38
2019-03-27T02:43:08.663Z,33.53
2019-03-27T02:45:37.047Z,30.80
2019-03-27T02:48:05.415Z,25.15
2019-03-27T02:50:33.811Z,27.98
2019-03-27T02:53:02.295Z,26.82
2019-03-27T02:55:30.687Z,28.85
2019-03-27T02:57:59.075Z,24.90
2019-03-27T03:00:27.452Z,24.65
2019-03-27T03:02:55.853Z,32.20
2019-03-27T03:05:24.224Z,28.73
2019-03-27T03:07:52.616Z,24.87
2019-03-27T03:10:21.051Z,29.67
2019-03-27T03:12:49.442Z,31.00
2019-03-27T03:15:21.588Z,38.05
2019-03-27T03:17:50.157Z,28.47
2019-03-27T03:20:18.540Z,30.02
2019-03-27T03:22:46.945Z,28.85
2019-03-27T03:25:15.319Z,27.32
2019-03-27T03:27:43.712Z,28.55
2019-03-27T03:30:12.100Z,31.62
2019-03-27T03:32:40.536Z,24.10
2019-03-27T03:35:08.906Z,27.13
2019-03-27T03:37:37.296Z,29.82
2019-03-27T03:40:05.727Z,32.25
2019-03-27T03:42:34.305Z,29.00
2019-03-27T03:45:02.700Z,28.00
2019-03-27T03:47:32.330Z,29.25
2019-03-27T03:52:54.336Z,29.48
2019-03-27T03:55:22.747Z,30.05
2019-03-27T03:58:09.276Z,32.33
2019-03-27T04:00:37.798Z,26.33
2019-03-27T04:03:06.282Z,26.55
2019-03-27T04:05:34.735Z,29.57
2019-03-27T04:08:19.431Z,29.77
2019-03-27T04:11:09.179Z,28.00
2019-03-27T04:13:37.585Z,28.42
2019-03-27T04:16:05.966Z,32.45
2019-03-27T04:18:34.400Z,28.32
2019-03-27T04:21:02.802Z,37.58
2019-03-27T04:23:31.222Z,35.43
2019-03-27T04:26:09.647Z,29.02
2019-03-27T04:28:29.723Z,31.05
2019-03-27T04:30:58.127Z,32.05
2019-03-27T04:33:26.540Z,29.35
2019-03-27T04:35:54.999Z,26.23
2019-03-27T04:38:23.439Z,28.67
2019-03-27T04:40:51.840Z,32.45
2019-03-27T04:43:20.258Z,33.58
2019-03-27T04:45:48.670Z,32.63
2019-03-27T04:48:17.107Z,33.98
2019-03-27T04:50:46.523Z,29.63
2019-03-27T04:53:14.958Z,32.30
2019-03-27T04:55:43.371Z,29.18
2019-03-27T04:58:11.790Z,37.17
2019-03-27T05:00:40.183Z,35.20
2019-03-27T05:03:08.590Z,34.20
2019-03-27T05:05:36.971Z,39.63
2019-03-27T05:08:05.387Z,36.08
2019-03-27T05:10:33.877Z,34.45
2019-03-27T05:13:02.305Z,41.63
2019-03-27T05:15:30.709Z,35.70
2019-03-27T05:17:59.102Z,34.53
2019-03-27T05:20:28.842Z,40.38
2019-03-27T05:22:57.397Z,34.00
2019-03-27T05:25:25.809Z,33.45
2019-03-27T05:27:54.203Z,32.45
2019-03-27T05:30:27.498Z,33.23
2019-03-27T05:35:23.824Z,32.63
2019-03-27T05:37:52.224Z,34.18
2019-03-27T05:40:21.177Z,32.60
2019-03-27T05:42:59.996Z,38.75
2019-03-27T05:45:19.809Z,31.90
2019-03-27T05:47:58.882Z,32.10
2019-03-27T05:50:18.269Z,33.88
2019-03-27T05:52:46.657Z,36.17
2019-03-27T05:55:15.078Z,30.20
2019-03-27T05:57:43.477Z,34.05
2019-03-27T06:00:13.110Z,40.52
2019-03-27T06:02:41.500Z,32.93
2019-03-27T06:05:09.999Z,31.35
2019-03-27T06:07:38.484Z,32.38
2019-03-27T06:10:07.052Z,34.45
2019-03-27T06:12:35.438Z,38.78
2019-03-27T06:15:05.400Z,35.48
2019-03-27T06:17:33.774Z,32.48
2019-03-27T06:20:02.263Z,36.17
2019-03-27T06:22:30.671Z,37.45
2019-03-27T06:24:59.341Z,45.55
2019-03-27T06:27:27.731Z,35.98
2019-03-27T06:29:56.376Z,31.90
2019-03-27T06:32:24.941Z,40.10
2019-03-27T06:34:53.351Z,36.75
2019-03-27T06:37:21.744Z,36.20
2019-03-27T06:39:50.327Z,32.40
2019-03-27T06:42:18.723Z,40.05
2019-03-27T06:44:47.127Z,42.83
2019-03-27T06:47:15.531Z,45.45
2019-03-27T06:49:43.961Z,42.00
2019-03-27T06:52:12.349Z,43.25
2019-03-27T06:54:40.772Z,37.28
2019-03-27T06:57:09.178Z,44.80
2019-03-27T06:59:37.582Z,44.27
2019-03-27T07:02:05.960Z,46.65
2019-03-27T07:04:34.386Z,38.42
2019-03-27T07:07:02.785Z,41.02
2019-03-27T07:09:31.256Z,45.98
2019-03-27T07:11:59.655Z,43.78
2019-03-27T07:14:28.036Z,52.83
2019-03-27T07:16:56.457Z,44.53
2019-03-27T07:19:24.845Z,43.40
2019-03-27T07:21:53.279Z,46.48
2019-03-27T07:24:21.674Z,46.02
2019-03-27T07:26:50.094Z,48.55
2019-03-27T07:29:19.150Z,42.90
2019-03-27T07:31:47.744Z,48.73
2019-03-27T07:34:16.138Z,43.65
2019-03-27T07:36:44.556Z,49.03
2019-03-27T07:39:13.008Z,46.02
2019-03-27T07:41:41.461Z,45.88
2019-03-27T07:44:09.875Z,52.48
2019-03-27T07:46:38.284Z,47.65
2019-03-27T07:49:06.682Z,44.80
2019-03-27T07:51:35.144Z,47.05
2019-03-27T07:54:03.518Z,48.17
2019-03-27T07:56:31.938Z,50.58
2019-03-27T07:59:00.330Z,51.10
2019-03-27T08:01:28.747Z,53.78
2019-03-27T08:03:57.168Z,45.83
2019-03-27T08:06:25.579Z,47.10
2019-03-27T08:08:53.976Z,49.50
2019-03-27T08:11:22.492Z,46.98
2019-03-27T08:13:50.881Z,44.67
2019-03-27T08:16:19.312Z,47.45
2019-03-27T08:18:47.711Z,47.27
2019-03-27T08:21:16.132Z,40.73
2019-03-27T08:23:44.527Z,42.67
2019-03-27T08:26:12.944Z,46.35
2019-03-27T08:28:41.350Z,44.77
2019-03-27T08:31:09.777Z,43.60
2019-03-27T08:33:38.190Z,47.13
2019-03-27T08:36:06.606Z,40.20
2019-03-27T08:38:35.009Z,42.03
2019-03-27T08:41:03.479Z,33.95
2019-03-27T08:43:31.828Z,39.53
2019-03-27T08:46:00.266Z,37.40
2019-03-27T08:48:28.648Z,40.05
2019-03-27T08:50:57.147Z,40.05
2019-03-27T08:53:25.502Z,41.45
2019-03-27T08:55:53.926Z,42.13
2019-03-27T08:58:22.358Z,38.92
2019-03-27T09:00:54.701Z,35.75
2019-03-27T09:03:23.116Z,43.93
2019-03-27T09:05:51.579Z,39.20
2019-03-27T09:08:20.004Z,39.50
2019-03-27T09:10:48.402Z,37.15
2019-03-27T09:13:16.836Z,32.10
2019-03-27T09:15:45.233Z,29.50
2019-03-27T09:18:16.789Z,35.13
2019-03-27T09:20:43.723Z,32.40
2019-03-27T09:23:12.133Z,31.42
2019-03-27T09:25:40.543Z,33.70
2019-03-27T09:28:08.974Z,32.58
2019-03-27T09:30:37.363Z,29.98
2019-03-27T09:33:05.788Z,30.48
2019-03-27T09:35:34.236Z,37.90
2019-03-27T09:38:02.609Z,31.45
2019-03-27T09:40:31.012Z,31.02
2019-03-27T09:42:59.446Z,26.35
2019-03-27T09:45:27.846Z,31.57
2019-03-27T09:47:56.244Z,28.80
2019-03-27T09:50:24.628Z,27.67
2019-03-27T09:52:53.016Z,28.87
2019-03-27T09:55:21.316Z,29.92
2019-03-27T09:57:49.714Z,27.52
2019-03-27T10:00:26.948Z,23.38
2019-03-27T10:02:57.245Z,24.45
2019-03-27T10:05:25.389Z,24.67
2019-03-27T10:07:53.783Z,25.08
2019-03-27T10:10:22.168Z,22.93
2019-03-27T10:12:50.584Z,22.30
2019-03-27T10:15:18.962Z,15.40
2019-03-27T10:17:47.351Z,16.45
2019-03-27T10:20:15.655Z,23.55
2019-03-27T10:22:44.066Z,21.05
2019-03-27T10:25:12.434Z,23.73
2019-03-27T10:27:40.823Z,20.02
2019-03-27T10:30:09.192Z,12.95
2019-03-27T10:32:37.605Z,16.52
2019-03-27T10:35:06.148Z,19.95
2019-03-27T10:37:35.428Z,14.80
2019-03-27T10:40:06.435Z,16.50
2019-03-27T10:42:34.815Z,16.73
2019-03-27T10:45:03.372Z,16.73
2019-03-27T10:47:31.768Z,12.75
2019-03-27T10:50:00.388Z,13.30
2019-03-27T10:52:28.852Z,15.18
2019-03-27T10:54:57.230Z,16.05
2019-03-27T10:57:25.650Z,14.18
2019-03-27T10:59:54.023Z,13.58
2019-03-27T11:02:22.397Z,12.60
2019-03-27T11:04:50.794Z,16.82
2019-03-27T11:07:19.172Z,15.48
2019-03-27T11:09:47.582Z,14.60
2019-03-27T11:12:15.958Z,15.08
2019-03-27T11:14:44.382Z,16.10
2019-03-27T11:17:12.746Z,12.98
2019-03-27T11:19:41.153Z,15.78
2019-03-27T11:22:09.531Z,19.02
2019-03-27T11:24:37.935Z,16.15
2019-03-27T11:27:06.328Z,21.07
2019-03-27T11:29:34.732Z,19.32
2019-03-27T11:32:03.108Z,18.55
2019-03-27T11:34:31.528Z,17.45
2019-03-27T11:36:59.907Z,20.65
2019-03-27T11:39:28.335Z,16.62
2019-03-27T11:41:56.717Z,18.25
2019-03-27T11:44:25.105Z,18.40
2019-03-27T11:46:53.486Z,17.95
2019-03-27T11:49:21.878Z,17.60
2019-03-27T11:51:50.263Z,14.55
2019-03-27T11:54:18.674Z,14.73
2019-03-27T11:56:47.061Z,15.78
2019-03-27T11:59:15.448Z,15.38
2019-03-27T12:01:44.030Z,12.50
2019-03-27T12:04:12.637Z,14.47
2019-03-27T12:06:41.026Z,16.27
2019-03-27T12:09:09.444Z,14.65
2019-03-27T12:11:37.794Z,14.58
2019-03-27T12:14:06.186Z,14.63
2019-03-27T12:16:34.555Z,11.68
2019-03-27T12:19:02.970Z,11.60
2019-03-27T12:21:31.352Z,14.45
2019-03-27T12:23:59.737Z,13.95
2019-03-27T12:26:28.115Z,15.48
2019-03-27T12:28:56.491Z,14.03
2019-03-27T12:31:24.879Z,16.32
2019-03-27T12:33:53.268Z,12.55
2019-03-27T12:36:21.703Z,11.85
2019-03-27T12:38:50.028Z,11.18
2019-03-27T12:41:18.424Z,13.58
2019-03-27T12:43:46.799Z,12.90
2019-03-27T12:46:15.199Z,13.68
2019-03-27T12:48:43.500Z,14.98
2019-03-27T12:51:13.351Z,12.18
2019-03-27T12:53:41.866Z,14.45
2019-03-27T12:56:10.260Z,10.78
2019-03-27T12:58:38.636Z,12.43
2019-03-27T13:01:07.040Z,12.80
2019-03-27T13:03:35.424Z,13.35
2019-03-27T13:06:03.819Z,13.18
2019-03-27T13:08:32.196Z,13.40
2019-03-27T13:11:00.612Z,12.65
2019-03-27T13:13:28.991Z,13.03
2019-03-27T13:15:57.384Z,10.75
2019-03-27T13:18:25.757Z,12.05
2019-03-27T13:20:54.256Z,10.50
2019-03-27T13:23:22.631Z,13.53
2019-03-27T13:25:51.183Z,13.32
2019-03-27T13:28:19.552Z,11.25
2019-03-27T13:30:47.958Z,13.60
2019-03-27T13:33:16.323Z,8.95
2019-03-27T13:35:44.731Z,14.70
2019-03-27T13:38:13.123Z,13.05
2019-03-27T13:40:41.515Z,13.90
2019-03-27T13:43:09.878Z,8.75
2019-03-27T13:45:38.269Z,9.08
2019-03-27T13:48:06.651Z,9.05
2019-03-27T13:50:35.043Z,12.05
2019-03-27T13:53:03.416Z,8.80
2019-03-27T13:55:34.908Z,12.00
2019-03-27T13:58:01.877Z,10.08
2019-03-27T14:00:30.242Z,11.83
2019-03-27T14:02:58.694Z,9.63
2019-03-27T14:05:27.120Z,9.75
2019-03-27T14:07:55.511Z,9.13
2019-03-27T14:10:23.892Z,10.72
2019-03-27T14:12:52.290Z,12.78
2019-03-27T14:15:21.044Z,9.55
2019-03-27T14:17:49.436Z,9.58
2019-03-27T14:20:17.812Z,9.75
2019-03-27T14:22:46.264Z,9.25
2019-03-27T14:25:14.575Z,11.57
2019-03-27T14:27:45.464Z,8.60
2019-03-27T14:30:15.504Z,9.98
2019-03-27T14:32:43.896Z,7.78
2019-03-27T14:35:12.267Z,10.88
2019-03-27T14:37:40.677Z,14.18
2019-03-27T14:40:09.220Z,8.03
2019-03-27T14:42:37.629Z,7.35
2019-03-27T14:45:08.346Z,7.90
2019-03-27T14:47:36.756Z,12.23
2019-03-27T14:50:07.922Z,8.20
2019-03-27T14:52:36.302Z,8.28
2019-03-27T14:55:07.403Z,8.75
2019-03-27T14:57:36.070Z,7.70
2019-03-27T15:00:09.534Z,7.80
2019-03-27T15:02:37.991Z,6.25
2019-03-27T15:05:07.208Z,6.35
2019-03-27T15:07:35.608Z,6.72
2019-03-27T15:10:06.236Z,8.65
2019-03-27T15:12:34.619Z,7.47
2019-03-27T15:15:03.164Z,8.05
2019-03-27T15:17:31.554Z,7.12
2019-03-27T15:19:59.916Z,7.83
2019-03-27T15:22:28.331Z,6.47
2019-03-27T15:24:56.718Z,10.38
2019-03-27T15:27:25.110Z,7.95
2019-03-27T15:29:53.483Z,10.20
2019-03-27T15:32:21.875Z,6.62
2019-03-27T15:34:50.247Z,6.30
2019-03-27T15:37:18.635Z,11.65
2019-03-27T15:39:47.022Z,12.40
2019-03-27T15:42:15.405Z,9.33
2019-03-27T15:44:43.781Z,13.05
2019-03-27T15:47:12.280Z,6.17
2019-03-27T15:49:40.718Z,8.73
2019-03-27T15:52:09.104Z,8.35
2019-03-27T15:54:37.557Z,7.60
2019-03-27T15:57:05.949Z,9.78
2019-03-27T15:59:34.318Z,6.20
2019-03-27T16:02:02.727Z,8.63
2019-03-27T16:04:31.095Z,4.53
2019-03-27T16:06:59.497Z,6.67
2019-03-27T16:09:27.864Z,6.20
2019-03-27T16:11:56.255Z,6.35
2019-03-27T16:14:26.617Z,5.37
2019-03-27T16:17:12.040Z,5.00
2019-03-27T16:19:25.019Z,6.42
2019-03-27T16:21:53.393Z,5.78
2019-03-27T16:24:21.784Z,4.92
2019-03-27T16:27:03.760Z,7.03
2019-03-27T16:29:20.211Z,8.05
2019-03-27T16:31:48.579Z,8.63
2019-03-27T16:34:16.983Z,5.65
2019-03-27T16:36:45.360Z,6.95
2019-03-27T16:39:13.775Z,5.60
2019-03-27T16:41:42.139Z,6.72
2019-03-27T16:44:10.541Z,6.42
2019-03-27T16:46:38.912Z,5.12
2019-03-27T16:49:07.304Z,7.97
2019-03-27T16:51:35.683Z,4.58
2019-03-27T16:54:04.108Z,4.08
2019-03-27T16:56:32.475Z,4.75
2019-03-27T16:59:00.796Z,7.10
2019-03-27T17:01:29.170Z,6.00
2019-03-27T17:03:57.570Z,5.80
2019-03-27T17:06:25.954Z,6.50
2019-03-27T17:08:54.414Z,6.47
2019-03-27T17:11:22.712Z,5.78
2019-03-27T17:13:51.093Z,18.02
2019-03-27T17:16:19.408Z,10.60
2019-03-27T17:18:47.808Z,15.95
2019-03-27T17:21:16.171Z,8.98
2019-03-27T17:23:44.559Z,11.20
2019-03-27T17:26:12.855Z,8.48
2019-03-27T17:28:41.248Z,4.80
2019-03-27T17:31:09.611Z,6.70
2019-03-27T17:33:38.011Z,6.75
2019-03-27T17:36:06.392Z,7.50
2019-03-27T17:38:34.775Z,6.95
2019-03-27T17:41:03.279Z,7.90
2019-03-27T17:43:31.683Z,8.20
2019-03-27T17:46:00.052Z,6.05
2019-03-27T17:48:28.455Z,7.03
2019-03-27T17:50:57.468Z,9.55
2019-03-27T17:53:31.380Z,9.95
2019-03-27T17:55:59.049Z,6.33
2019-03-27T17:58:27.438Z,9.30
2019-03-27T18:00:57.117Z,5.83
2019-03-27T18:03:25.516Z,11.20
2019-03-27T18:05:53.887Z,5.58
2019-03-27T18:08:22.332Z,9.33
2019-03-27T18:10:50.660Z,7.03
2019-03-27T18:13:19.066Z,8.98
2019-03-27T18:15:47.440Z,6.50
2019-03-27T18:18:15.844Z,6.92
2019-03-27T18:20:44.221Z,7.33
2019-03-27T18:23:12.629Z,10.78
2019-03-27T18:25:40.999Z,9.15
2019-03-27T18:28:09.396Z,10.13
2019-03-27T18:30:37.777Z,8.70
2019-03-27T18:33:06.192Z,8.48
2019-03-27T18:35:34.575Z,8.55
2019-03-27T18:38:02.975Z,9.18
2019-03-27T18:40:31.349Z,11.57
2019-03-27T18:42:59.762Z,21.05
2019-03-27T18:45:28.182Z,15.30
2019-03-27T18:47:56.564Z,11.95
2019-03-27T18:50:25.239Z,14.43
2019-03-27T18:52:53.603Z,11.95
2019-03-27T18:55:26.727Z,11.40
2019-03-27T18:58:00.093Z,8.80
2019-03-27T19:00:22.118Z,12.05
2019-03-27T19:02:50.470Z,12.20
2019-03-27T19:05:18.862Z,10.18
2019-03-27T19:07:47.252Z,12.07
2019-03-27T19:10:15.643Z,12.28
2019-03-27T19:12:44.027Z,12.60
2019-03-27T19:15:13.103Z,11.15
2019-03-27T19:17:41.495Z,12.70
2019-03-27T19:20:09.892Z,13.53
2019-03-27T19:22:38.300Z,12.47
2019-03-27T19:25:07.450Z,13.00
2019-03-27T19:27:35.955Z,10.23
2019-03-27T19:30:06.387Z,11.20
2019-03-27T19:32:34.747Z,10.18
2019-03-27T19:35:03.146Z,12.55
2019-03-27T19:37:31.771Z,9.33
2019-03-27T19:40:01.168Z,14.38
2019-03-27T19:42:30.186Z,11.93
2019-03-27T19:44:58.663Z,11.48
2019-03-27T19:47:27.116Z,13.20
2019-03-27T19:49:55.692Z,12.00
2019-03-27T19:52:24.077Z,13.05
2019-03-27T19:54:52.463Z,17.50
2019-03-27T19:57:20.838Z,12.78
2019-03-27T19:59:49.235Z,13.90
2019-03-27T20:02:17.590Z,14.78
2019-03-27T20:04:46.242Z,12.78
2019-03-27T20:07:14.592Z,12.23
2019-03-27T20:09:42.995Z,10.75
2019-03-27T20:12:11.377Z,12.50
2019-03-27T20:14:42.391Z,12.43
2019-03-27T20:17:09.807Z,11.73
2019-03-27T20:19:38.221Z,11.25
2019-03-27T20:22:06.741Z,10.88
2019-03-27T20:24:40.868Z,13.70
2019-03-27T20:27:05.142Z,13.15
2019-03-27T20:29:33.556Z,11.55
2019-03-27T20:32:01.928Z,10.18
2019-03-27T20:34:30.332Z,13.08
2019-03-27T20:36:59.075Z,11.05
2019-03-27T20:39:27.488Z,11.60
2019-03-27T20:41:56.250Z,11.08
2019-03-27T20:44:24.640Z,8.00
2019-03-27T20:46:52.995Z,12.05
2019-03-27T20:49:21.378Z,10.35
2019-03-27T20:51:49.742Z,7.40
2019-03-27T20:54:19.248Z,11.73
2019-03-27T20:56:47.668Z,9.18
2019-03-27T20:59:18.355Z,9.13
2019-03-27T21:01:46.099Z,8.98
2019-03-27T21:04:14.455Z,9.48
2019-03-27T21:06:42.864Z,9.83
2019-03-27T21:09:11.309Z,10.32
2019-03-27T21:11:39.708Z,8.38
2019-03-27T21:14:08.074Z,12.88
2019-03-27T21:16:36.485Z,10.13
2019-03-27T21:19:04.864Z,14.90
2019-03-27T21:21:33.260Z,12.90
2019-03-27T21:24:01.622Z,13.22
2019-03-27T21:26:30.028Z,11.75
2019-03-27T21:28:58.472Z,12.10
2019-03-27T21:31:26.867Z,11.25
2019-03-27T21:33:57.721Z,12.00
2019-03-27T21:36:25.254Z,11.18
2019-03-27T21:38:53.630Z,9.88
2019-03-27T21:41:22.024Z,12.03
2019-03-27T21:43:50.502Z,15.10
2019-03-27T21:46:18.913Z,12.33
2019-03-27T21:48:47.290Z,13.43
2019-03-27T21:51:15.683Z,11.75
2019-03-27T21:53:50.399Z,7.47
2019-03-27T21:56:15.022Z,10.85
2019-03-27T21:58:43.405Z,10.78
2019-03-27T22:01:11.800Z,11.30
2019-03-27T22:03:40.171Z,11.80
2019-03-27T22:06:08.623Z,10.68
2019-03-27T22:08:36.935Z,9.93
2019-03-27T22:11:05.407Z,8.80
2019-03-27T22:13:33.855Z,8.95
2019-03-27T22:16:02.249Z,11.12
2019-03-27T22:18:30.619Z,10.18
2019-03-27T22:20:59.021Z,12.35
2019-03-27T22:23:27.387Z,9.50
2019-03-27T22:25:55.783Z,10.50
2019-03-27T22:28:24.177Z,11.55
2019-03-27T22:30:52.579Z,13.32
2019-03-27T22:33:20.952Z,10.00
2019-03-27T22:35:49.343Z,13.03
2019-03-27T22:38:17.710Z,13.40
2019-03-27T22:40:46.075Z,10.80
2019-03-27T22:43:14.483Z,11.57
2019-03-27T22:45:42.854Z,12.33
2019-03-27T22:48:11.239Z,16.45
2019-03-27T22:50:39.605Z,17.35
2019-03-27T22:53:07.987Z,12.88
2019-03-27T22:55:48.962Z,12.58
2019-03-27T22:58:06.392Z,14.13
2019-03-27T23:00:45.292Z,10.23
2019-03-27T23:03:18.396Z,14.00
2019-03-27T23:05:44.618Z,11.38
2019-03-27T23:08:13.016Z,25.12
2019-03-27T23:10:41.463Z,27.73
2019-03-27T23:13:09.938Z,22.70
2019-03-27T23:15:38.303Z,25.02
2019-03-27T23:18:06.710Z,17.67
2019-03-27T23:20:35.078Z,21.73
2019-03-27T23:23:03.471Z,20.02
2019-03-27T23:25:31.844Z,21.62
2019-03-27T23:28:00.378Z,14.40
2019-03-27T23:30:28.707Z,15.70
2019-03-27T23:32:57.101Z,14.73
2019-03-27T23:35:25.469Z,12.43
2019-03-27T23:37:53.860Z,14.43
2019-03-27T23:40:22.230Z,12.82
2019-03-27T23:42:50.623Z,18.05
2019-03-27T23:45:19.002Z,13.05
2019-03-27T23:47:47.392Z,14.95
2019-03-27T23:50:15.755Z,14.23
2019-03-27T23:52:44.159Z,12.28
2019-03-27T23:55:12.531Z,17.15
2019-03-27T23:57:40.932Z,16.17
